createdAt,value
2022-12-01T00:01:49.299Z,98.60
2022-12-01T00:04:20.090Z,92.15
2022-12-01T00:06:50.005Z,101.38
2022-12-01T00:09:35.957Z,106.22
2022-12-01T00:12:06.259Z,100.40
2022-12-01T00:14:34.445Z,102.82
2022-12-01T00:17:02.699Z,94.82
2022-12-01T00:19:30.790Z,100.20
2022-12-01T00:21:59.556Z,99.93
2022-12-01T00:24:27.738Z,93.18
2022-12-01T00:26:56.154Z,94.07
2022-12-01T00:29:26.059Z,95.43
2022-12-01T00:31:54.345Z,92.60
2022-12-01T00:34:25.756Z,105.30
2022-12-01T00:36:55.123Z,122.28
2022-12-01T00:39:23.345Z,119.57
2022-12-01T00:41:51.830Z,123.13
2022-12-01T00:44:20.251Z,109.13
2022-12-01T00:46:49.894Z,102.80
2022-12-01T00:49:18.566Z,122.38
2022-12-01T00:51:46.742Z,103.85
2022-12-01T00:54:17.431Z,110.60
2022-12-01T00:56:48.242Z,138.75
2022-12-01T00:59:16.648Z,114.20
2022-12-01T01:01:44.974Z,108.93
2022-12-01T01:04:14.817Z,119.32
2022-12-01T01:06:44.203Z,101.90
2022-12-01T01:09:14.296Z,99.45
2022-12-01T01:11:43.436Z,93.65
2022-12-01T01:14:12.217Z,99.30
2022-12-01T01:16:40.677Z,104.43
2022-12-01T01:19:09.531Z,99.20
2022-12-01T01:21:40.752Z,97.07
2022-12-01T01:24:09.306Z,112.13
2022-12-01T01:26:37.787Z,103.00
2022-12-01T01:29:07.671Z,123.57
2022-12-01T01:31:37.483Z,93.20
2022-12-01T01:34:06.132Z,101.85
2022-12-01T01:36:35.755Z,94.22
2022-12-01T01:39:06.046Z,96.93
2022-12-01T01:41:34.327Z,86.30
2022-12-01T01:44:04.449Z,91.70
2022-12-01T01:46:35.195Z,101.55
2022-12-01T01:49:07.885Z,123.40
2022-12-01T01:54:17.059Z,105.57
2022-12-01T01:56:47.069Z,95.50
2022-12-01T01:59:20.272Z,98.28
2022-12-01T02:01:54.363Z,101.03
2022-12-01T02:04:24.716Z,91.25
2022-12-01T02:06:53.634Z,89.45
2022-12-01T02:09:23.501Z,88.57
2022-12-01T02:12:12.883Z,94.88
2022-12-01T02:14:58.662Z,99.43
2022-12-01T02:17:41.756Z,86.50
2022-12-01T02:20:51.346Z,87.90
2022-12-01T02:24:37.271Z,104.28
2022-12-01T02:27:31.058Z,133.88
2022-12-01T02:30:14.503Z,144.32
2022-12-01T02:33:08.623Z,121.65
2022-12-01T02:35:47.513Z,106.38
2022-12-01T02:38:26.971Z,112.43
2022-12-01T02:41:02.772Z,103.20
2022-12-01T02:43:39.173Z,131.50
2022-12-01T02:46:12.934Z,98.68
2022-12-01T02:48:48.108Z,118.07
2022-12-01T02:51:23.947Z,109.00
2022-12-01T02:53:52.879Z,103.50
2022-12-01T02:56:24.342Z,121.15
2022-12-01T02:58:54.136Z,115.32
2022-12-01T03:01:44.841Z,110.90
2022-12-01T03:04:50.646Z,104.90
2022-12-01T03:07:41.778Z,101.03
2022-12-01T03:10:20.070Z,117.70
2022-12-01T03:13:07.737Z,109.97
2022-12-01T03:15:45.241Z,122.28
2022-12-01T03:18:25.136Z,115.68
2022-12-01T03:21:03.709Z,105.75
2022-12-01T03:23:37.257Z,117.32
2022-12-01T03:26:09.367Z,104.32
2022-12-01T03:28:44.006Z,97.97
2022-12-01T03:31:17.402Z,132.13
2022-12-01T03:33:51.740Z,131.27
2022-12-01T03:36:28.076Z,158.32
2022-12-01T03:39:04.831Z,142.65
2022-12-01T03:41:40.043Z,129.18
2022-12-01T03:44:16.720Z,155.68
2022-12-01T03:46:53.274Z,141.05
2022-12-01T03:49:23.802Z,131.88
2022-12-01T03:52:08.615Z,151.15
2022-12-01T03:54:50.240Z,151.93
2022-12-01T03:57:26.804Z,164.25
2022-12-01T03:59:55.551Z,141.95
2022-12-01T04:02:27.929Z,134.18
2022-12-01T04:04:57.354Z,168.52
2022-12-01T04:07:27.308Z,156.43
2022-12-01T04:09:55.463Z,210.18
2022-12-01T04:12:32.957Z,230.93
2022-12-01T04:15:03.644Z,248.13
2022-12-01T04:17:32.527Z,151.90
2022-12-01T04:20:01.475Z,154.40
2022-12-01T04:22:31.066Z,167.88
2022-12-01T04:24:59.393Z,211.30
2022-12-01T04:27:27.921Z,188.07
2022-12-01T04:29:56.125Z,164.52
2022-12-01T04:32:24.538Z,239.40
2022-12-01T04:34:52.883Z,168.07
2022-12-01T04:37:22.500Z,253.77
2022-12-01T04:39:52.293Z,196.13
2022-12-01T04:42:22.105Z,203.00
2022-12-01T04:44:50.334Z,206.30
2022-12-01T04:47:19.020Z,233.98
2022-12-01T04:49:47.765Z,180.80
2022-12-01T04:52:16.337Z,167.88
2022-12-01T04:54:44.505Z,169.23
2022-12-01T04:57:14.271Z,184.85
2022-12-01T04:59:42.606Z,167.38
2022-12-01T05:02:10.841Z,151.52
2022-12-01T05:04:41.824Z,143.27
2022-12-01T05:07:10.240Z,161.40
2022-12-01T05:09:38.806Z,149.05
2022-12-01T05:12:07.799Z,143.52
2022-12-01T05:14:37.435Z,155.55
2022-12-01T05:17:05.590Z,134.32
2022-12-01T05:19:51.489Z,133.70
2022-12-01T05:22:36.421Z,176.38
2022-12-01T05:25:09.394Z,166.90
2022-12-01T05:27:37.708Z,177.73
2022-12-01T05:30:09.879Z,175.10
2022-12-01T05:32:38.044Z,140.52
2022-12-01T05:35:08.608Z,153.60
2022-12-01T05:37:36.936Z,178.95
2022-12-01T05:40:06.418Z,179.90
2022-12-01T05:42:34.648Z,184.05
2022-12-01T05:45:03.135Z,160.93
2022-12-01T05:47:33.304Z,190.38
2022-12-01T05:50:05.575Z,166.32
2022-12-01T05:52:35.691Z,162.93
2022-12-01T05:55:04.523Z,171.50
2022-12-01T05:57:33.085Z,178.50
2022-12-01T06:00:01.498Z,167.05
2022-12-01T06:02:42.761Z,204.48
2022-12-01T06:05:11.407Z,178.05
2022-12-01T06:07:40.838Z,196.60
2022-12-01T06:10:11.031Z,189.93
2022-12-01T06:12:39.747Z,169.15
2022-12-01T06:15:09.970Z,170.40
2022-12-01T06:17:40.377Z,168.07
2022-12-01T06:20:12.755Z,169.18
2022-12-01T06:22:41.125Z,172.13
2022-12-01T06:25:10.833Z,170.60
2022-12-01T06:27:39.043Z,205.25
2022-12-01T06:30:10.339Z,166.80
2022-12-01T06:32:38.751Z,168.80
2022-12-01T06:35:09.680Z,167.77
2022-12-01T06:37:39.592Z,181.68
2022-12-01T06:40:09.540Z,161.07
2022-12-01T06:42:37.715Z,152.27
2022-12-01T06:45:07.470Z,151.57
2022-12-01T06:47:36.080Z,119.20
2022-12-01T06:50:05.243Z,116.72
2022-12-01T06:52:33.586Z,101.22
2022-12-01T06:55:04.186Z,95.05
2022-12-01T06:57:33.002Z,91.38
2022-12-01T07:00:01.308Z,99.07
2022-12-01T07:02:29.947Z,88.32
2022-12-01T07:04:59.316Z,85.07
2022-12-01T07:07:27.526Z,83.97
2022-12-01T07:09:55.937Z,92.32
2022-12-01T07:12:25.671Z,103.57
2022-12-01T07:14:53.934Z,104.13
2022-12-01T07:17:22.185Z,97.53
2022-12-01T07:19:50.604Z,98.13
2022-12-01T07:22:19.740Z,91.57
2022-12-01T07:24:48.285Z,99.47
2022-12-01T07:27:16.839Z,96.00
2022-12-01T07:29:46.951Z,92.20
2022-12-01T07:32:16.638Z,92.13
2022-12-01T07:34:44.943Z,90.25
2022-12-01T07:37:13.402Z,90.45
2022-12-01T07:39:42.317Z,95.55
2022-12-01T07:42:10.865Z,86.80
2022-12-01T07:44:39.311Z,97.40
2022-12-01T07:47:09.031Z,90.38
2022-12-01T07:49:37.902Z,80.15
2022-12-01T07:52:07.194Z,83.30
2022-12-01T07:54:35.531Z,89.68
2022-12-01T07:57:04.512Z,87.93
2022-12-01T07:59:32.793Z,90.32
2022-12-01T08:02:01.583Z,87.45
2022-12-01T08:04:31.118Z,85.93
2022-12-01T08:06:59.498Z,83.25
2022-12-01T08:09:28.023Z,84.38
2022-12-01T08:11:56.158Z,75.07
2022-12-01T08:14:24.740Z,87.68
2022-12-01T08:16:52.924Z,87.63
2022-12-01T08:19:21.503Z,84.50
2022-12-01T08:21:51.563Z,85.72
2022-12-01T08:24:19.904Z,95.95
2022-12-01T08:26:48.121Z,94.65
2022-12-01T08:29:20.169Z,93.53
2022-12-01T08:31:49.022Z,94.93
2022-12-01T08:34:18.832Z,106.05
2022-12-01T08:36:47.145Z,90.82
2022-12-01T08:39:17.129Z,98.10
2022-12-01T08:41:46.419Z,102.80
2022-12-01T08:44:14.949Z,102.72
2022-12-01T08:46:43.407Z,111.07
2022-12-01T08:49:11.590Z,110.30
2022-12-01T08:51:40.074Z,121.70
2022-12-01T08:54:08.513Z,125.95
2022-12-01T08:56:42.428Z,127.85
2022-12-01T08:59:10.826Z,127.22
2022-12-01T09:01:52.230Z,115.85
2022-12-01T09:04:23.963Z,121.35
2022-12-01T09:06:54.473Z,108.43
2022-12-01T09:09:25.458Z,114.65
2022-12-01T09:11:57.229Z,122.40
2022-12-01T09:14:25.408Z,106.33
2022-12-01T09:16:53.943Z,118.93
2022-12-01T09:19:24.987Z,101.13
2022-12-01T09:21:55.222Z,107.38
2022-12-01T09:24:25.044Z,106.28
2022-12-01T09:26:59.143Z,96.68
2022-12-01T09:29:27.700Z,96.00
2022-12-01T09:31:57.970Z,95.63
2022-12-01T09:34:26.883Z,94.38
2022-12-01T09:36:57.558Z,100.20
2022-12-01T09:39:28.148Z,89.18
2022-12-01T09:42:08.423Z,89.57
2022-12-01T09:44:43.675Z,89.70
2022-12-01T09:47:20.508Z,89.13
2022-12-01T09:49:58.644Z,88.47
2022-12-01T09:52:31.411Z,83.18
2022-12-01T09:55:01.747Z,80.78
2022-12-01T09:57:36.727Z,78.30
2022-12-01T10:00:16.035Z,87.65
2022-12-01T10:02:50.866Z,94.18
2022-12-01T10:05:23.982Z,90.22
2022-12-01T10:07:57.486Z,94.93
2022-12-01T10:10:31.961Z,98.05
2022-12-01T10:13:01.784Z,95.82
2022-12-01T10:15:40.908Z,99.72
2022-12-01T10:18:28.671Z,95.38
2022-12-01T10:21:10.967Z,92.47
2022-12-01T10:23:58.890Z,101.05
2022-12-01T10:26:39.040Z,108.47
2022-12-01T10:29:14.397Z,103.10
2022-12-01T10:31:55.190Z,110.93
2022-12-01T10:34:28.023Z,118.85
2022-12-01T10:36:56.776Z,112.32
2022-12-01T10:39:32.391Z,144.50
2022-12-01T10:42:08.105Z,133.05
2022-12-01T10:44:37.839Z,154.05
2022-12-01T10:47:19.685Z,147.90
2022-12-01T10:49:48.116Z,149.15
2022-12-01T10:52:37.038Z,152.82
2022-12-01T10:55:24.998Z,160.30
2022-12-01T10:57:55.761Z,144.48
2022-12-01T11:00:57.987Z,141.20
2022-12-01T11:03:23.821Z,155.68
2022-12-01T11:05:57.907Z,163.32
2022-12-01T11:08:34.973Z,162.52
2022-12-01T11:11:03.499Z,184.85
2022-12-01T11:13:35.743Z,178.32
2022-12-01T11:16:08.279Z,151.75
2022-12-01T11:18:39.185Z,160.02
2022-12-01T11:21:13.016Z,174.10
2022-12-01T11:23:48.536Z,154.93
2022-12-01T11:26:20.672Z,153.00
2022-12-01T11:28:55.603Z,151.07
2022-12-01T11:31:39.061Z,143.00
2022-12-01T11:34:17.294Z,143.10
2022-12-01T11:36:51.270Z,131.32
2022-12-01T11:39:31.717Z,143.50
2022-12-01T11:42:05.288Z,138.60
2022-12-01T11:44:50.957Z,136.23
2022-12-01T11:47:26.327Z,141.18
2022-12-01T11:49:57.929Z,126.47
2022-12-01T11:52:31.308Z,139.15
2022-12-01T11:55:09.796Z,137.05
2022-12-01T11:57:42.107Z,139.05
2022-12-01T12:00:16.406Z,141.60
2022-12-01T12:03:11.964Z,142.38
2022-12-01T12:06:38.988Z,142.10
2022-12-01T12:09:21.541Z,141.75
2022-12-01T12:12:04.754Z,131.07
2022-12-01T12:14:49.946Z,137.43
2022-12-01T12:17:48.787Z,129.05
2022-12-01T12:20:43.265Z,134.43
2022-12-01T12:23:48.016Z,134.82
2022-12-01T12:26:22.605Z,152.25
2022-12-01T12:29:28.021Z,164.88
2022-12-01T12:32:20.584Z,135.73
2022-12-01T12:34:57.608Z,158.00
2022-12-01T12:37:40.555Z,144.15
2022-12-01T12:43:23.551Z,144.65
2022-12-01T12:46:05.064Z,133.10
2022-12-01T12:51:53.554Z,126.90
2022-12-01T12:54:31.100Z,123.45
2022-12-01T12:57:05.859Z,117.60
2022-12-01T12:59:46.642Z,118.00
2022-12-01T13:02:22.520Z,111.07
2022-12-01T13:04:59.311Z,115.13
2022-12-01T13:07:35.793Z,127.85
2022-12-01T13:10:17.572Z,148.10
2022-12-01T13:12:56.085Z,138.18
2022-12-01T13:15:26.575Z,139.18
2022-12-01T13:18:01.098Z,127.78
2022-12-01T13:20:32.158Z,126.07
2022-12-01T13:23:03.161Z,124.63
2022-12-01T13:25:39.422Z,121.10
2022-12-01T13:28:23.142Z,105.55
2022-12-01T13:31:05.086Z,96.53
2022-12-01T13:33:35.426Z,101.97
2022-12-01T13:39:04.293Z,107.05
2022-12-01T13:41:38.450Z,108.50
2022-12-01T13:44:20.516Z,98.75
2022-12-01T13:46:57.836Z,101.47
2022-12-01T13:49:43.824Z,100.93
2022-12-01T13:52:30.395Z,94.90
2022-12-01T13:55:25.534Z,91.13
2022-12-01T13:58:45.094Z,83.57
2022-12-01T14:01:46.198Z,75.88
2022-12-01T14:04:31.495Z,72.28
2022-12-01T14:07:29.775Z,73.22
2022-12-01T14:10:30.632Z,68.32
2022-12-01T14:13:04.841Z,65.10
2022-12-01T14:15:42.912Z,59.17
2022-12-01T14:18:35.290Z,58.83
2022-12-01T14:21:06.706Z,52.50
2022-12-01T14:23:36.926Z,59.30
2022-12-01T14:26:19.891Z,59.97
2022-12-01T14:29:31.926Z,68.95
2022-12-01T14:32:33.938Z,60.17
2022-12-01T14:35:14.892Z,55.08
2022-12-01T14:37:49.093Z,59.33
2022-12-01T14:40:25.724Z,55.25
2022-12-01T14:43:15.902Z,63.20
2022-12-01T14:45:56.232Z,58.70
2022-12-01T14:48:38.615Z,57.53
2022-12-01T14:51:22.973Z,59.72
2022-12-01T14:53:53.269Z,56.33
2022-12-01T14:56:24.913Z,56.38
2022-12-01T14:58:56.734Z,56.15
2022-12-01T15:01:30.684Z,57.77
2022-12-01T15:04:03.371Z,55.53
2022-12-01T15:06:35.428Z,56.10
2022-12-01T15:12:06.834Z,52.55
2022-12-01T15:14:37.886Z,57.97
2022-12-01T15:17:08.994Z,66.20
2022-12-01T15:19:41.503Z,62.65
2022-12-01T15:22:15.778Z,61.60
2022-12-01T15:24:46.223Z,68.15
2022-12-01T15:27:28.420Z,67.13
2022-12-01T15:29:58.352Z,68.75
2022-12-01T15:32:29.167Z,66.60
2022-12-01T15:35:01.825Z,66.95
2022-12-01T15:43:05.465Z,71.03
2022-12-01T15:45:50.570Z,73.90
2022-12-01T15:48:30.177Z,71.57
2022-12-01T15:51:20.140Z,79.57
2022-12-01T15:53:53.804Z,67.82
2022-12-01T15:56:28.506Z,70.88
2022-12-01T15:59:04.446Z,76.65
2022-12-01T16:01:34.907Z,67.70
2022-12-01T16:04:08.536Z,69.10
2022-12-01T16:06:40.271Z,73.88
2022-12-01T16:09:23.259Z,70.67
2022-12-01T16:12:23.015Z,72.65
2022-12-01T16:15:04.126Z,76.43
2022-12-01T16:17:44.103Z,74.88
2022-12-01T16:20:26.215Z,72.28
2022-12-01T16:23:01.033Z,71.65
2022-12-01T16:25:36.058Z,79.75
2022-12-01T16:28:07.746Z,78.45
2022-12-01T16:30:39.613Z,82.43
2022-12-01T16:33:19.827Z,78.57
2022-12-01T16:35:48.422Z,80.70
2022-12-01T16:38:22.687Z,89.80
2022-12-01T16:40:53.504Z,81.68
2022-12-01T16:43:25.157Z,84.50
2022-12-01T16:46:00.913Z,92.47
2022-12-01T16:48:31.606Z,87.07
2022-12-01T16:51:06.471Z,86.05
2022-12-01T16:53:37.155Z,91.00
2022-12-01T16:56:07.579Z,94.22
2022-12-01T16:58:36.978Z,85.47
2022-12-01T17:01:07.727Z,85.78
2022-12-01T17:03:38.223Z,91.85
2022-12-01T17:06:08.585Z,92.30
2022-12-01T17:08:40.591Z,90.78
2022-12-01T17:11:10.806Z,91.70
2022-12-01T17:13:40.495Z,96.35
2022-12-01T17:16:17.961Z,90.85
2022-12-01T17:18:47.941Z,87.40
2022-12-01T17:21:17.357Z,92.53
2022-12-01T17:23:48.728Z,93.97
2022-12-01T17:26:21.451Z,87.28
2022-12-01T17:31:19.909Z,95.20
2022-12-01T17:33:49.668Z,96.45
2022-12-01T17:36:20.220Z,94.28
2022-12-01T17:38:51.351Z,95.75
2022-12-01T17:41:24.717Z,108.10
2022-12-01T17:43:53.202Z,103.53
2022-12-01T17:46:21.567Z,92.90
2022-12-01T17:48:50.065Z,102.97
2022-12-01T17:51:19.081Z,105.47
2022-12-01T17:53:47.287Z,93.78
2022-12-01T17:56:18.478Z,98.80
2022-12-01T17:58:46.681Z,92.65
2022-12-01T18:01:18.940Z,88.75
2022-12-01T18:03:47.711Z,91.13
2022-12-01T18:06:17.556Z,89.60
2022-12-01T18:08:45.912Z,93.75
2022-12-01T18:11:17.473Z,90.63
2022-12-01T18:13:52.067Z,95.22
2022-12-01T18:16:23.014Z,98.22
2022-12-01T18:18:51.436Z,98.85
2022-12-01T18:21:22.684Z,105.18
2022-12-01T18:23:51.733Z,103.32
2022-12-01T18:26:22.399Z,103.35
2022-12-01T18:28:55.917Z,99.07
2022-12-01T18:31:25.770Z,106.43
2022-12-01T18:33:54.434Z,96.72
2022-12-01T18:36:26.207Z,108.72
2022-12-01T18:38:58.224Z,107.13
2022-12-01T18:41:29.057Z,113.85
2022-12-01T18:43:57.505Z,114.72
2022-12-01T18:46:25.702Z,99.75
2022-12-01T18:49:00.633Z,108.93
2022-12-01T18:51:30.073Z,110.13
2022-12-01T18:53:59.919Z,104.57
2022-12-01T18:56:30.415Z,103.00
2022-12-01T18:59:01.111Z,107.95
2022-12-01T19:01:32.487Z,103.95
2022-12-01T19:04:02.161Z,117.00
2022-12-01T19:06:31.085Z,115.55
2022-12-01T19:09:02.184Z,106.68
2022-12-01T19:11:33.054Z,109.25
2022-12-01T19:14:01.331Z,105.53
2022-12-01T19:16:30.858Z,99.43
2022-12-01T19:19:00.280Z,106.20
2022-12-01T19:21:28.554Z,98.53
2022-12-01T19:23:59.019Z,110.05
2022-12-01T19:26:27.905Z,105.07
2022-12-01T19:28:59.250Z,102.53
2022-12-01T19:31:27.428Z,91.47
2022-12-01T19:33:56.106Z,96.13
2022-12-01T19:36:28.615Z,102.45
2022-12-01T19:39:00.298Z,103.57
2022-12-01T19:41:29.277Z,102.82
2022-12-01T19:43:59.539Z,98.43
2022-12-01T19:46:28.719Z,100.00
2022-12-01T19:49:00.335Z,87.70
2022-12-01T19:51:32.011Z,96.78
2022-12-01T19:54:00.831Z,88.88
2022-12-01T19:56:31.369Z,93.85
2022-12-01T19:59:02.336Z,100.72
2022-12-01T20:01:32.132Z,97.70
2022-12-01T20:04:00.987Z,95.40
2022-12-01T20:06:31.422Z,92.82
2022-12-01T20:09:03.430Z,92.43
2022-12-01T20:11:33.059Z,96.65
2022-12-01T20:14:05.348Z,95.82
2022-12-01T20:16:33.595Z,94.78
2022-12-01T20:19:03.231Z,93.72
2022-12-01T20:21:34.948Z,94.78
2022-12-01T20:24:06.196Z,95.22
2022-12-01T20:26:38.052Z,95.82
2022-12-01T20:29:14.499Z,100.23
2022-12-01T20:31:43.961Z,99.55
2022-12-01T20:34:16.083Z,109.78
2022-12-01T20:36:44.746Z,99.40
2022-12-01T20:39:16.962Z,102.30
2022-12-01T20:41:46.357Z,109.63
2022-12-01T20:44:17.949Z,93.63
2022-12-01T20:46:47.366Z,93.95
2022-12-01T20:49:18.435Z,94.70
2022-12-01T20:51:47.557Z,92.45
2022-12-01T20:54:33.215Z,98.50
2022-12-01T20:57:01.938Z,96.47
2022-12-01T20:59:31.802Z,97.13
2022-12-01T21:02:01.011Z,91.80
2022-12-01T21:04:29.224Z,97.05
2022-12-01T21:06:58.408Z,97.05
2022-12-01T21:09:27.512Z,94.43
2022-12-01T21:12:16.120Z,93.40
2022-12-01T21:14:50.516Z,100.53
2022-12-01T21:17:34.831Z,100.43
2022-12-01T21:20:21.229Z,102.50
2022-12-01T21:22:51.293Z,105.10
2022-12-01T21:25:24.014Z,108.50
2022-12-01T21:27:57.088Z,115.75
2022-12-01T21:30:28.612Z,111.45
2022-12-01T21:33:17.808Z,122.00
2022-12-01T21:35:47.155Z,114.22
2022-12-01T21:38:21.640Z,114.60
2022-12-01T21:40:50.427Z,115.10
2022-12-01T21:43:22.011Z,110.40
2022-12-01T21:45:56.864Z,115.60
2022-12-01T21:48:25.846Z,106.90
2022-12-01T21:51:03.439Z,112.55
2022-12-01T21:53:38.274Z,109.20
2022-12-01T21:56:10.860Z,102.75
2022-12-01T21:58:41.097Z,113.70
2022-12-01T22:01:21.571Z,103.60
2022-12-01T22:03:50.348Z,105.07
2022-12-01T22:06:30.960Z,105.47
2022-12-01T22:09:09.213Z,109.90
2022-12-01T22:11:38.415Z,100.53
2022-12-01T22:14:17.191Z,100.65
2022-12-01T22:16:52.500Z,108.85
2022-12-01T22:19:32.423Z,104.38
2022-12-01T22:22:21.692Z,101.00
2022-12-01T22:24:53.140Z,102.35
2022-12-01T22:27:33.758Z,89.97
2022-12-01T22:30:11.759Z,87.65
2022-12-01T22:32:57.969Z,83.22
2022-12-01T22:35:34.737Z,82.07
2022-12-01T22:38:35.643Z,77.50
2022-12-01T22:41:11.940Z,75.72
2022-12-01T22:43:49.069Z,79.78
2022-12-01T22:46:32.762Z,77.82
2022-12-01T22:49:13.686Z,72.55
2022-12-01T22:51:47.511Z,75.30
2022-12-01T22:54:34.662Z,72.78
2022-12-01T22:57:32.956Z,76.97
2022-12-01T23:00:15.059Z,72.35
2022-12-01T23:02:43.549Z,72.60
2022-12-01T23:05:24.359Z,74.00
2022-12-01T23:07:54.131Z,65.50
2022-12-01T23:10:25.728Z,62.85
2022-12-01T23:12:56.518Z,64.45
2022-12-01T23:15:32.958Z,69.35
2022-12-01T23:18:12.621Z,63.38
2022-12-01T23:20:44.263Z,67.32
2022-12-01T23:23:16.071Z,63.72
2022-12-01T23:25:45.916Z,62.03
2022-12-01T23:28:15.383Z,63.55
2022-12-01T23:30:47.423Z,58.28
2022-12-01T23:33:24.237Z,64.57
2022-12-01T23:35:58.610Z,65.50
2022-12-01T23:38:32.833Z,58.72
2022-12-01T23:41:07.195Z,57.10
2022-12-01T23:43:39.961Z,57.33
2022-12-01T23:46:12.885Z,61.28
2022-12-01T23:48:44.467Z,57.45
2022-12-01T23:51:20.124Z,59.03
2022-12-01T23:53:48.844Z,60.63
2022-12-01T23:56:21.134Z,68.20
2022-12-01T23:58:50.864Z,65.43
